Hlavní strana
METAR-TAF:

METAR-TAF

Letiště :

Zaqatala, Ázerbájdžán

zeměpisná šířka: 41-33-44N, zeměpisná délka: 46-40-02E, výška: 330 m

Aktuální stav počasí

Zpráva byla vytvořena před 15 minutami, v 01:00 UTC
Bezvětří
Teplota 14°C
Vlhkost vzduchu 88%
Tlak 1024 hPa
Viditelnost 10 km a více
Oblačno až skoro zataženo ve výšce 2800 ft

METAR: UBBY 180100Z 00000KT 9999 BKN028 14/12 Q1024 R33/////// NOSIG RMK MT PT OBSC

Čas: 05:15 (01:15 UTC)

Předpověď počasí

Zpráva byla vytvořena před 2 hodinami a 15 minutami, v 23:00 UTC
Předpověď platná od 18 v 00 UTC do 18 v 09 UTC
vítr z různých směrů 4 kt
Viditelnost: 6000 m
Polojasno ve výšce 2000 ft
Dočasný
od 18 v 01 UTC do 18 v 04 UTC
Viditelnost: 3000 m
kouřmo

TAF: UBBY 172300Z 1800/1809 VRB04KT 6000 SCT020 TEMPO 1801/1804 3000 BR

Stav a předpovědi počasí z více než 4 000 letišť (zprávy METAR a TAF).

Červené a žluté tečky na mapě představují dostupné meteorologické stanice.

Když kurzor umístíte na tečku, zobrazí se název stanice.

Pak kliknutím zobrazíte stav a předpověď počasí.

Chcete-li změnit mapu, kliknutím na zelené tlačítko se znaménkem +mapu přiblížíte, kliknutím na zelené tlačítko se znaménkem – mapu oddálíte a kliknutím na zelené šipky přejdete na sousední mapy.


METAR-TAF: